createdAt,value
2023-03-27T00:00:37.729Z,19
2023-03-27T00:01:44.713Z,19
2023-03-27T00:02:51.715Z,20
2023-03-27T00:03:58.371Z,20
2023-03-27T00:05:05.109Z,19
2023-03-27T00:06:12.018Z,18
2023-03-27T00:07:21.321Z,20
2023-03-27T00:08:28.181Z,20
2023-03-27T00:09:34.945Z,19
2023-03-27T00:10:41.849Z,21
2023-03-27T00:11:48.686Z,20
2023-03-27T00:12:55.522Z,21
2023-03-27T00:14:02.408Z,25
2023-03-27T00:15:09.343Z,26
2023-03-27T00:16:21.282Z,28
2023-03-27T00:17:28.149Z,27
2023-03-27T00:18:35.012Z,27
2023-03-27T00:19:41.848Z,25
2023-03-27T00:20:48.628Z,24
2023-03-27T00:21:55.488Z,22
2023-03-27T00:23:02.440Z,21
2023-03-27T00:24:09.253Z,24
2023-03-27T00:25:16.054Z,24
2023-03-27T00:26:22.831Z,25
2023-03-27T00:27:29.727Z,27
2023-03-27T00:28:36.607Z,25
2023-03-27T00:29:43.398Z,29
2023-03-27T00:30:50.183Z,30
2023-03-27T00:31:56.989Z,28
2023-03-27T00:33:03.831Z,28
2023-03-27T00:34:10.753Z,28
2023-03-27T00:35:17.681Z,27
2023-03-27T00:36:24.401Z,28
2023-03-27T00:37:31.191Z,28
2023-03-27T00:38:37.964Z,28
2023-03-27T00:39:44.784Z,26
2023-03-27T00:40:51.544Z,28
2023-03-27T00:41:58.396Z,27
2023-03-27T00:43:05.131Z,27
2023-03-27T00:44:20.019Z,27
2023-03-27T00:45:29.736Z,26
2023-03-27T00:46:36.531Z,25
2023-03-27T00:47:43.324Z,25
2023-03-27T00:48:50.132Z,26
2023-03-27T00:49:56.965Z,25
2023-03-27T00:51:03.736Z,27
2023-03-27T00:52:10.620Z,28
2023-03-27T00:53:17.455Z,25
2023-03-27T00:54:24.205Z,26
2023-03-27T00:55:31.005Z,27
2023-03-27T00:56:37.887Z,25
2023-03-27T00:57:44.644Z,26
2023-03-27T00:58:54.321Z,25
2023-03-27T01:00:01.172Z,25
2023-03-27T01:01:08.186Z,26
2023-03-27T01:02:14.941Z,27
2023-03-27T01:03:21.821Z,28
2023-03-27T01:04:28.646Z,25
2023-03-27T01:05:35.486Z,24
2023-03-27T01:06:42.395Z,26
2023-03-27T01:07:59.939Z,25
2023-03-27T01:08:55.973Z,25
2023-03-27T01:10:02.831Z,25
2023-03-27T01:11:09.933Z,25
2023-03-27T01:12:21.774Z,26
2023-03-27T01:13:33.724Z,26
2023-03-27T01:14:50.656Z,25
2023-03-27T01:16:07.598Z,25
2023-03-27T01:17:19.444Z,28
2023-03-27T01:18:26.260Z,26
2023-03-27T01:19:33.173Z,25
2023-03-27T01:20:47.748Z,26
2023-03-27T01:22:02.434Z,26
2023-03-27T01:23:14.377Z,26
2023-03-27T01:24:23.923Z,25
2023-03-27T01:25:38.774Z,23
2023-03-27T01:26:55.687Z,25
2023-03-27T01:28:07.597Z,26
2023-03-27T01:29:19.559Z,24
2023-03-27T01:30:26.323Z,25
2023-03-27T01:31:36.083Z,23
2023-03-27T01:32:50.822Z,25
2023-03-27T01:34:05.327Z,23
2023-03-27T01:35:22.203Z,22
2023-03-27T01:36:36.902Z,21
2023-03-27T01:37:53.923Z,23
2023-03-27T01:39:10.860Z,26
2023-03-27T01:40:20.293Z,25
2023-03-27T01:41:27.090Z,25
2023-03-27T01:42:38.872Z,27
2023-03-27T01:43:53.739Z,28
2023-03-27T01:45:03.440Z,29
2023-03-27T01:46:20.344Z,27
2023-03-27T01:47:27.098Z,27
2023-03-27T01:48:41.527Z,28
2023-03-27T01:49:51.066Z,30
2023-03-27T01:51:05.777Z,33
2023-03-27T01:52:18.357Z,33
2023-03-27T01:53:25.212Z,32
2023-03-27T01:54:37.094Z,31
2023-03-27T01:55:46.709Z,33
2023-03-27T01:56:53.873Z,32
2023-03-27T01:58:03.128Z,32
2023-03-27T01:59:09.920Z,32
2023-03-27T02:00:17.231Z,31
2023-03-27T02:01:23.691Z,32
2023-03-27T02:02:35.983Z,34
2023-03-27T02:03:42.765Z,31
2023-03-27T02:04:49.630Z,32
2023-03-27T02:06:01.471Z,33
2023-03-27T02:07:11.072Z,33
2023-03-27T02:08:17.861Z,34
2023-03-27T02:09:27.435Z,34
2023-03-27T02:10:34.244Z,34
2023-03-27T02:11:41.021Z,33
2023-03-27T02:12:47.820Z,33
2023-03-27T02:14:02.409Z,32
2023-03-27T02:15:22.771Z,32
2023-03-27T02:16:18.706Z,32
2023-03-27T02:17:25.540Z,29
2023-03-27T02:18:32.305Z,32
2023-03-27T02:19:39.093Z,30
2023-03-27T02:20:48.795Z,30
2023-03-27T02:21:55.584Z,27
2023-03-27T02:23:02.554Z,29
2023-03-27T02:24:09.339Z,28
2023-03-27T02:25:16.124Z,26
2023-03-27T02:26:27.953Z,28
2023-03-27T02:27:34.801Z,29
2023-03-27T02:28:41.566Z,27
2023-03-27T02:29:58.583Z,27
2023-03-27T02:31:32.030Z,26
2023-03-27T02:32:20.407Z,27
2023-03-27T02:33:32.238Z,26
2023-03-27T02:34:49.170Z,24
2023-03-27T02:35:56.090Z,25
2023-03-27T02:37:07.929Z,26
2023-03-27T02:38:14.789Z,25
2023-03-27T02:39:31.731Z,23
2023-03-27T02:40:48.639Z,24
2023-03-27T02:41:58.515Z,26
2023-03-27T02:43:13.204Z,27
2023-03-27T02:44:30.044Z,26
2023-03-27T02:45:39.899Z,26
2023-03-27T02:46:54.475Z,27
2023-03-27T02:48:06.414Z,26
2023-03-27T02:49:13.170Z,23
2023-03-27T02:50:23.100Z,23
2023-03-27T02:51:34.991Z,23
2023-03-27T02:52:41.918Z,24
2023-03-27T02:53:48.728Z,22
2023-03-27T02:55:08.716Z,22
2023-03-27T02:56:20.553Z,24
2023-03-27T02:57:27.321Z,23
2023-03-27T02:58:34.133Z,23
2023-03-27T02:59:45.917Z,23
2023-03-27T03:00:52.839Z,25
2023-03-27T03:01:59.759Z,21
2023-03-27T03:03:06.792Z,21
2023-03-27T03:04:16.482Z,22
2023-03-27T03:05:28.355Z,23
2023-03-27T03:06:35.230Z,20
2023-03-27T03:07:42.038Z,21
2023-03-27T03:08:48.834Z,20
2023-03-27T03:09:55.620Z,21
2023-03-27T03:11:02.402Z,20
2023-03-27T03:12:12.100Z,18
2023-03-27T03:13:19.006Z,18
2023-03-27T03:14:25.854Z,19
2023-03-27T03:15:35.199Z,19
2023-03-27T03:16:42.029Z,18
2023-03-27T03:17:48.793Z,18
2023-03-27T03:18:55.716Z,16
2023-03-27T03:20:02.639Z,16
2023-03-27T03:21:09.809Z,17
2023-03-27T03:22:16.736Z,16
2023-03-27T03:23:23.568Z,16
2023-03-27T03:24:30.332Z,17
2023-03-27T03:25:37.281Z,16
2023-03-27T03:26:44.100Z,16
2023-03-27T03:27:50.944Z,15
2023-03-27T03:28:59.930Z,14
2023-03-27T03:30:04.626Z,14
2023-03-27T03:31:11.657Z,15
2023-03-27T03:32:18.495Z,14
2023-03-27T03:33:25.370Z,13
2023-03-27T03:34:32.188Z,13
2023-03-27T03:35:39.060Z,13
2023-03-27T03:36:45.732Z,13
2023-03-27T03:37:52.590Z,13
2023-03-27T03:38:59.276Z,13
2023-03-27T03:40:06.115Z,13
2023-03-27T03:41:13.192Z,12
2023-03-27T03:42:22.518Z,13
2023-03-27T03:43:26.886Z,14
2023-03-27T03:44:33.621Z,14
2023-03-27T03:45:40.513Z,14
2023-03-27T03:46:47.258Z,14
2023-03-27T03:47:54.062Z,13
2023-03-27T03:49:00.925Z,13
2023-03-27T03:50:07.792Z,15
2023-03-27T03:51:14.548Z,14
2023-03-27T03:52:21.306Z,13
2023-03-27T03:53:28.085Z,14
2023-03-27T03:54:34.970Z,14
2023-03-27T03:55:41.791Z,12
2023-03-27T03:56:48.626Z,12
2023-03-27T03:57:55.712Z,15
2023-03-27T03:59:02.553Z,14
2023-03-27T04:00:09.396Z,13
2023-03-27T04:01:16.536Z,13
2023-03-27T04:02:23.367Z,14
2023-03-27T04:03:33.016Z,12
2023-03-27T04:04:39.772Z,13
2023-03-27T04:05:46.549Z,14
2023-03-27T04:06:53.351Z,11
2023-03-27T04:08:00.225Z,11
2023-03-27T04:09:07.039Z,10
2023-03-27T04:10:13.825Z,12
2023-03-27T04:11:20.650Z,12
2023-03-27T04:12:27.421Z,12
2023-03-27T04:13:34.195Z,12
2023-03-27T04:14:40.982Z,11
2023-03-27T04:15:47.769Z,12
2023-03-27T04:16:54.532Z,11
2023-03-27T04:18:01.375Z,11
2023-03-27T04:19:08.062Z,10
2023-03-27T04:20:14.858Z,13
2023-03-27T04:21:21.689Z,11
2023-03-27T04:22:28.513Z,12
2023-03-27T04:23:35.285Z,11
2023-03-27T04:24:42.122Z,11
2023-03-27T04:25:48.983Z,12
2023-03-27T04:26:55.753Z,11
2023-03-27T04:28:02.527Z,11
2023-03-27T04:29:09.304Z,11
2023-03-27T04:30:16.133Z,12
2023-03-27T04:31:22.923Z,11
2023-03-27T04:32:29.749Z,10
2023-03-27T04:33:36.594Z,11
2023-03-27T04:34:43.381Z,10
2023-03-27T04:36:05.711Z,13
2023-03-27T04:36:57.151Z,13
2023-03-27T04:38:03.962Z,12
2023-03-27T04:39:10.773Z,12
2023-03-27T04:40:17.558Z,12
2023-03-27T04:41:24.440Z,13
2023-03-27T04:42:31.268Z,13
2023-03-27T04:43:38.146Z,14
2023-03-27T04:44:44.969Z,12
2023-03-27T04:45:51.748Z,15
2023-03-27T04:46:58.672Z,14
2023-03-27T04:48:05.564Z,15
2023-03-27T04:49:12.335Z,15
2023-03-27T04:50:22.072Z,14
2023-03-27T04:51:28.813Z,15
2023-03-27T04:52:35.584Z,14
2023-03-27T04:53:42.367Z,16
2023-03-27T04:54:49.245Z,15
2023-03-27T04:55:56.057Z,14
2023-03-27T04:57:04.532Z,13
2023-03-27T04:58:16.838Z,14
2023-03-27T04:59:23.686Z,14
2023-03-27T05:00:30.473Z,17
2023-03-27T05:01:37.350Z,15
2023-03-27T05:02:44.188Z,16
2023-03-27T05:03:51.113Z,15
2023-03-27T05:04:57.784Z,13
2023-03-27T05:06:04.604Z,12
2023-03-27T05:07:11.447Z,12
2023-03-27T05:08:18.266Z,12
2023-03-27T05:09:25.149Z,13
2023-03-27T05:10:31.917Z,12
2023-03-27T05:11:38.885Z,14
2023-03-27T05:12:45.661Z,14
2023-03-27T05:13:52.473Z,13
2023-03-27T05:14:59.306Z,13
2023-03-27T05:16:06.090Z,13
2023-03-27T05:17:12.931Z,13
2023-03-27T05:18:19.793Z,14
2023-03-27T05:19:26.833Z,14
2023-03-27T05:20:33.452Z,14
2023-03-27T05:21:40.268Z,12
2023-03-27T05:22:47.077Z,12
2023-03-27T05:23:56.635Z,12
2023-03-27T05:25:03.401Z,13
2023-03-27T05:26:10.310Z,12
2023-03-27T05:27:17.041Z,14
2023-03-27T05:28:23.841Z,15
2023-03-27T05:29:30.621Z,12
2023-03-27T05:30:37.488Z,14
2023-03-27T05:31:44.228Z,13
2023-03-27T05:32:51.065Z,13
2023-03-27T05:33:57.864Z,13
2023-03-27T05:35:04.650Z,14
2023-03-27T05:36:11.468Z,14
2023-03-27T05:37:21.257Z,16
2023-03-27T05:38:27.996Z,17
2023-03-27T05:39:34.747Z,16
2023-03-27T05:40:41.683Z,14
2023-03-27T05:41:48.513Z,15
2023-03-27T05:42:55.449Z,12
2023-03-27T05:44:02.220Z,15
2023-03-27T05:45:09.015Z,15
2023-03-27T05:46:20.710Z,14
2023-03-27T05:47:22.771Z,15
2023-03-27T05:48:29.507Z,14
2023-03-27T05:49:36.248Z,14
2023-03-27T05:50:43.095Z,16
2023-03-27T05:51:49.887Z,14
2023-03-27T05:52:56.702Z,14
2023-03-27T05:54:03.487Z,16
2023-03-27T05:55:10.275Z,15
2023-03-27T05:56:17.005Z,14
2023-03-27T05:57:23.851Z,15
2023-03-27T05:58:30.688Z,17
2023-03-27T05:59:37.492Z,15
2023-03-27T06:00:44.260Z,15
2023-03-27T06:01:51.125Z,16
2023-03-27T06:02:57.973Z,16
2023-03-27T06:04:04.900Z,16
2023-03-27T06:05:11.634Z,20
2023-03-27T06:06:18.447Z,18
2023-03-27T06:07:25.173Z,16
2023-03-27T06:08:32.037Z,18
2023-03-27T06:09:38.812Z,17
2023-03-27T06:10:45.604Z,17
2023-03-27T06:11:52.434Z,16
2023-03-27T06:12:59.285Z,18
2023-03-27T06:14:11.076Z,20
2023-03-27T06:15:17.848Z,16
2023-03-27T06:16:24.785Z,19
2023-03-27T06:17:31.699Z,16
2023-03-27T06:18:38.494Z,17
2023-03-27T06:19:45.265Z,17
2023-03-27T06:20:52.033Z,18
2023-03-27T06:21:58.855Z,16
2023-03-27T06:23:05.838Z,17
2023-03-27T06:24:12.586Z,19
2023-03-27T06:25:19.341Z,17
2023-03-27T06:26:26.129Z,18
2023-03-27T06:27:32.921Z,17
2023-03-27T06:28:39.757Z,17
2023-03-27T06:29:46.586Z,16
2023-03-27T06:30:53.435Z,19
2023-03-27T06:32:00.191Z,17
2023-03-27T06:33:07.055Z,18
2023-03-27T06:34:13.823Z,18
2023-03-27T06:35:20.754Z,19
2023-03-27T06:36:27.627Z,19
2023-03-27T06:37:34.342Z,16
2023-03-27T06:38:41.092Z,15
2023-03-27T06:39:47.895Z,14
2023-03-27T06:40:54.762Z,14
2023-03-27T06:42:01.567Z,14
2023-03-27T06:43:08.404Z,14
2023-03-27T06:44:15.167Z,13
2023-03-27T06:45:21.959Z,13
2023-03-27T06:46:43.032Z,14
2023-03-27T06:47:53.640Z,14
2023-03-27T06:48:52.100Z,14
2023-03-27T06:49:58.903Z,12
2023-03-27T06:51:05.665Z,13
2023-03-27T06:52:12.464Z,14
2023-03-27T06:54:26.096Z,14
2023-03-27T06:55:32.991Z,15
2023-03-27T06:56:39.900Z,14
2023-03-27T06:57:46.722Z,13
2023-03-27T06:58:53.547Z,15
2023-03-27T07:00:02.405Z,12
2023-03-27T07:01:07.417Z,14
2023-03-27T07:02:14.282Z,13
2023-03-27T07:03:21.080Z,13
2023-03-27T07:04:27.858Z,11
2023-03-27T07:05:34.663Z,12
2023-03-27T07:06:41.484Z,13
2023-03-27T07:07:49.319Z,14
2023-03-27T07:08:55.161Z,13
2023-03-27T07:10:01.913Z,11
2023-03-27T07:11:11.935Z,11
2023-03-27T07:12:15.916Z,10
2023-03-27T07:13:22.841Z,12
2023-03-27T07:14:29.605Z,11
2023-03-27T07:15:36.356Z,12
2023-03-27T07:16:43.209Z,12
2023-03-27T07:17:50.014Z,12
2023-03-27T07:19:01.857Z,11
2023-03-27T07:20:06.564Z,13
2023-03-27T07:21:13.556Z,12
2023-03-27T07:22:20.653Z,11
2023-03-27T07:23:27.203Z,12
2023-03-27T07:24:34.010Z,11
2023-03-27T07:25:40.828Z,11
2023-03-27T07:26:47.594Z,11
2023-03-27T07:27:54.599Z,11
2023-03-27T07:29:03.954Z,12
2023-03-27T07:30:10.732Z,13
2023-03-27T07:31:29.670Z,11
2023-03-27T07:32:34.291Z,12
2023-03-27T07:33:31.379Z,12
2023-03-27T07:34:38.115Z,16
2023-03-27T07:35:44.848Z,12
2023-03-27T07:36:51.679Z,11
2023-03-27T07:37:58.523Z,11
2023-03-27T07:39:05.287Z,11
2023-03-27T07:40:12.196Z,10
2023-03-27T07:41:19.352Z,11
2023-03-27T07:42:26.398Z,12
2023-03-27T07:43:33.542Z,11
2023-03-27T07:44:40.335Z,12
2023-03-27T07:45:47.165Z,11
2023-03-27T07:46:53.917Z,12
2023-03-27T07:48:00.729Z,12
2023-03-27T07:49:10.311Z,12
2023-03-27T07:50:17.224Z,13
2023-03-27T07:51:24.009Z,10
2023-03-27T07:52:30.942Z,12
2023-03-27T07:53:37.703Z,14
2023-03-27T07:54:44.492Z,13
2023-03-27T07:55:51.299Z,13
2023-03-27T07:56:58.138Z,12
2023-03-27T07:58:04.983Z,12
2023-03-27T07:59:11.869Z,13
2023-03-27T08:00:18.655Z,14
2023-03-27T08:01:28.145Z,13
2023-03-27T08:02:35.043Z,14
2023-03-27T08:03:42.067Z,13
2023-03-27T08:04:48.837Z,12
2023-03-27T08:05:55.648Z,12
2023-03-27T08:07:02.312Z,13
2023-03-27T08:08:09.130Z,12
2023-03-27T08:09:16.245Z,12
2023-03-27T08:10:23.213Z,11
2023-03-27T08:11:30.862Z,12
2023-03-27T08:12:36.725Z,14
2023-03-27T08:13:43.511Z,11
2023-03-27T08:14:50.340Z,12
2023-03-27T08:15:57.218Z,14
2023-03-27T08:17:15.422Z,14
2023-03-27T08:18:15.914Z,14
2023-03-27T08:19:22.617Z,14
2023-03-27T08:20:29.408Z,14
2023-03-27T08:21:36.207Z,14
2023-03-27T08:22:43.014Z,15
2023-03-27T08:23:49.797Z,15
2023-03-27T08:24:56.564Z,14
2023-03-27T08:26:03.335Z,16
2023-03-27T08:27:10.175Z,16
2023-03-27T08:28:17.040Z,15
2023-03-27T08:29:23.827Z,20
2023-03-27T08:30:30.680Z,18
2023-03-27T08:31:37.453Z,22
2023-03-27T08:32:44.267Z,20
2023-03-27T08:33:51.073Z,19
2023-03-27T08:34:57.925Z,22
2023-03-27T08:36:04.777Z,20
2023-03-27T08:37:11.718Z,39
2023-03-27T08:38:25.943Z,31
2023-03-27T08:39:25.354Z,44
2023-03-27T08:40:32.179Z,53
2023-03-27T08:41:39.057Z,25
2023-03-27T08:42:55.955Z,51
2023-03-27T08:44:05.344Z,112
2023-03-27T08:45:17.188Z,26
2023-03-27T08:46:26.629Z,15
2023-03-27T08:47:41.549Z,12
2023-03-27T08:48:53.439Z,15
2023-03-27T08:50:00.291Z,76
2023-03-27T08:51:07.177Z,19
2023-03-27T08:52:16.962Z,20
2023-03-27T08:53:29.608Z,19
2023-03-27T08:54:41.420Z,20
2023-03-27T08:55:48.201Z,19
2023-03-27T08:56:54.927Z,13
2023-03-27T08:58:01.720Z,15
2023-03-27T08:59:08.490Z,13
2023-03-27T09:00:15.411Z,15
2023-03-27T09:01:25.137Z,14
2023-03-27T09:02:42.086Z,13
2023-03-27T09:03:53.954Z,13
2023-03-27T09:05:05.714Z,13
2023-03-27T09:06:12.662Z,14
2023-03-27T09:07:19.433Z,14
2023-03-27T09:08:31.315Z,14
2023-03-27T09:09:43.284Z,15
2023-03-27T09:10:55.220Z,12
2023-03-27T09:12:07.206Z,12
2023-03-27T09:13:21.868Z,12
2023-03-27T09:14:36.600Z,8
2023-03-27T09:15:43.379Z,8
2023-03-27T09:17:00.283Z,8
2023-03-27T09:18:12.187Z,10
2023-03-27T09:19:18.987Z,7
2023-03-27T09:20:35.923Z,5
2023-03-27T09:21:42.753Z,7
2023-03-27T09:22:54.579Z,7
2023-03-27T09:24:11.472Z,6
2023-03-27T09:25:18.292Z,6
2023-03-27T09:26:32.874Z,5
2023-03-27T09:27:39.693Z,6
2023-03-27T09:28:47.949Z,6
2023-03-27T09:30:05.197Z,9
2023-03-27T09:31:05.580Z,6
2023-03-27T09:32:17.354Z,5
2023-03-27T09:33:24.293Z,5
2023-03-27T09:34:31.074Z,5
2023-03-27T09:35:37.844Z,5
2023-03-27T09:36:44.694Z,4
2023-03-27T09:37:51.466Z,5
2023-03-27T09:38:58.346Z,5
2023-03-27T09:40:05.154Z,14
2023-03-27T09:41:12.166Z,5
2023-03-27T09:42:21.845Z,8
2023-03-27T09:43:33.685Z,7
2023-03-27T09:44:43.390Z,5
2023-03-27T09:45:50.217Z,5
2023-03-27T09:46:57.080Z,6
2023-03-27T09:48:09.024Z,9
2023-03-27T09:49:20.782Z,6
2023-03-27T09:50:27.920Z,6
2023-03-27T09:51:42.343Z,6
2023-03-27T09:52:51.972Z,5
2023-03-27T09:54:08.877Z,5
2023-03-27T09:55:15.678Z,5
2023-03-27T09:56:27.546Z,5
2023-03-27T09:57:34.378Z,5
2023-03-27T09:58:41.230Z,5
2023-03-27T09:59:48.007Z,4
2023-03-27T10:00:57.757Z,6
2023-03-27T10:02:09.491Z,5
2023-03-27T10:03:21.579Z,6
2023-03-27T10:04:28.235Z,6
2023-03-27T10:05:34.997Z,5
2023-03-27T10:06:41.771Z,4
2023-03-27T10:07:53.627Z,6
2023-03-27T10:09:00.399Z,5
2023-03-27T10:10:17.451Z,6
2023-03-27T10:11:24.172Z,4
2023-03-27T10:12:30.940Z,6
2023-03-27T10:13:37.718Z,5
2023-03-27T10:14:47.281Z,5
2023-03-27T10:15:54.152Z,5
2023-03-27T10:17:00.959Z,4
2023-03-27T10:18:07.678Z,6
2023-03-27T10:19:24.562Z,4
2023-03-27T10:20:31.665Z,5
2023-03-27T10:21:38.541Z,5
2023-03-27T10:22:45.299Z,5
2023-03-27T10:23:54.839Z,6
2023-03-27T10:25:01.570Z,5
2023-03-27T10:26:13.613Z,6
2023-03-27T10:27:20.354Z,6
2023-03-27T10:28:27.098Z,5
2023-03-27T10:29:37.598Z,5
2023-03-27T10:30:43.216Z,5
2023-03-27T10:31:50.116Z,5
2023-03-27T10:32:56.894Z,4
2023-03-27T10:34:03.691Z,5
2023-03-27T10:35:10.520Z,5
2023-03-27T10:36:27.455Z,5
2023-03-27T10:37:34.285Z,6
2023-03-27T10:38:41.019Z,6
2023-03-27T10:39:47.817Z,5
2023-03-27T10:40:54.788Z,6
2023-03-27T10:42:01.470Z,5
2023-03-27T10:43:08.333Z,5
2023-03-27T10:44:15.153Z,6
2023-03-27T10:45:21.991Z,5
2023-03-27T10:46:28.781Z,5
2023-03-27T10:47:35.591Z,5
2023-03-27T10:48:42.305Z,5
2023-03-27T10:49:51.965Z,5
2023-03-27T10:51:03.887Z,7
2023-03-27T10:52:10.702Z,6
2023-03-27T10:53:22.586Z,7
2023-03-27T10:54:32.533Z,5
2023-03-27T10:55:44.538Z,6
2023-03-27T10:56:54.129Z,7
2023-03-27T10:58:06.044Z,7
2023-03-27T10:59:23.369Z,5
2023-03-27T11:00:30.598Z,6
2023-03-27T11:01:37.481Z,6
2023-03-27T11:02:44.287Z,6
2023-03-27T11:03:54.178Z,5
2023-03-27T11:05:05.972Z,6
2023-03-27T11:06:12.758Z,6
2023-03-27T11:07:19.638Z,6
2023-03-27T11:08:26.430Z,7
2023-03-27T11:09:38.951Z,7
2023-03-27T11:10:45.818Z,7
2023-03-27T11:11:52.619Z,6
2023-03-27T11:13:01.918Z,6
2023-03-27T11:14:11.419Z,6
2023-03-27T11:15:23.314Z,9
2023-03-27T11:16:33.036Z,8
2023-03-27T11:17:42.803Z,7
2023-03-27T11:18:52.274Z,6
2023-03-27T11:20:09.135Z,7
2023-03-27T11:21:21.048Z,6
2023-03-27T11:22:37.966Z,15
2023-03-27T11:23:44.738Z,9
2023-03-27T11:24:56.692Z,10
2023-03-27T11:26:03.581Z,9
2023-03-27T11:27:11.008Z,6
2023-03-27T11:28:17.097Z,8
2023-03-27T11:29:34.007Z,10
2023-03-27T11:30:45.933Z,10
2023-03-27T11:31:52.862Z,13
2023-03-27T11:32:59.610Z,6
2023-03-27T11:34:28.083Z,8
2023-03-27T11:35:31.181Z,7
2023-03-27T11:36:37.948Z,8
2023-03-27T11:37:52.748Z,7
2023-03-27T11:38:59.546Z,8
2023-03-27T11:40:16.437Z,8
2023-03-27T11:41:28.305Z,8
2023-03-27T11:42:35.088Z,8
2023-03-27T11:43:41.956Z,8
2023-03-27T11:44:48.758Z,11
2023-03-27T11:45:55.682Z,13
2023-03-27T11:47:02.412Z,12
2023-03-27T11:48:14.273Z,11
2023-03-27T11:49:31.217Z,10
2023-03-27T11:50:48.083Z,6
2023-03-27T11:52:05.065Z,7
2023-03-27T11:53:14.671Z,8
2023-03-27T11:54:24.350Z,7
2023-03-27T11:55:36.209Z,7
2023-03-27T11:56:53.236Z,7
2023-03-27T11:58:00.039Z,8
2023-03-27T11:59:17.032Z,7
2023-03-27T12:00:34.046Z,7
2023-03-27T12:01:43.510Z,5
2023-03-27T12:02:50.473Z,6
2023-03-27T12:03:59.921Z,6
2023-03-27T12:05:14.816Z,8
2023-03-27T12:06:26.659Z,5
2023-03-27T12:07:40.543Z,7
2023-03-27T12:08:46.077Z,7
2023-03-27T12:09:55.093Z,7
2023-03-27T12:11:12.098Z,8
2023-03-27T12:12:18.932Z,5
2023-03-27T12:13:41.557Z,6
2023-03-27T12:14:52.783Z,6
2023-03-27T12:16:04.636Z,8
2023-03-27T12:17:16.648Z,8
2023-03-27T12:18:32.420Z,9
2023-03-27T12:19:38.920Z,8
2023-03-27T12:20:53.488Z,7
2023-03-27T12:22:07.176Z,9
2023-03-27T12:23:20.387Z,8
2023-03-27T12:24:39.075Z,9
2023-03-27T12:25:52.081Z,9
2023-03-27T12:26:58.986Z,9
2023-03-27T12:28:06.968Z,10
2023-03-27T12:29:25.072Z,11
2023-03-27T12:30:31.909Z,8
2023-03-27T12:31:46.570Z,7
2023-03-27T12:33:03.611Z,7
2023-03-27T12:34:20.545Z,8
2023-03-27T12:35:33.273Z,7
2023-03-27T12:36:46.163Z,9
2023-03-27T12:38:07.871Z,10
2023-03-27T12:39:18.408Z,8
2023-03-27T12:40:25.259Z,11
2023-03-27T12:41:35.096Z,8
2023-03-27T12:42:43.816Z,9
2023-03-27T12:43:51.548Z,10
2023-03-27T12:45:00.989Z,24
2023-03-27T12:46:17.968Z,37
2023-03-27T12:47:27.683Z,23
2023-03-27T12:48:34.513Z,15
2023-03-27T12:49:51.400Z,9
2023-03-27T12:51:01.026Z,13
2023-03-27T12:52:07.725Z,16
2023-03-27T12:53:14.471Z,39
2023-03-27T12:54:29.356Z,40
2023-03-27T12:55:38.840Z,44
2023-03-27T12:56:45.647Z,43
2023-03-27T12:57:52.566Z,16
2023-03-27T12:58:59.334Z,8
2023-03-27T13:00:06.451Z,9
2023-03-27T13:01:23.361Z,35
2023-03-27T13:02:40.505Z,14
2023-03-27T13:03:55.243Z,16
2023-03-27T13:05:01.968Z,12
2023-03-27T13:06:18.876Z,40
2023-03-27T13:07:35.919Z,19
2023-03-27T13:08:50.296Z,23
2023-03-27T13:10:02.180Z,10
2023-03-27T13:11:08.925Z,16
2023-03-27T13:12:15.731Z,19
2023-03-27T13:13:30.444Z,15
2023-03-27T13:14:47.336Z,7
2023-03-27T13:16:04.313Z,8
2023-03-27T13:17:16.168Z,9
2023-03-27T13:18:28.014Z,8
2023-03-27T13:19:39.838Z,6
2023-03-27T13:20:51.711Z,15
2023-03-27T13:22:03.613Z,14
2023-03-27T13:23:15.476Z,8
2023-03-27T13:24:30.051Z,12
2023-03-27T13:25:47.433Z,11
2023-03-27T13:26:59.356Z,9
2023-03-27T13:28:08.803Z,6
2023-03-27T13:29:18.172Z,9
2023-03-27T13:30:24.995Z,7
2023-03-27T13:31:41.986Z,8
2023-03-27T13:32:48.782Z,7
2023-03-27T13:34:05.804Z,18
2023-03-27T13:35:20.129Z,11
2023-03-27T13:36:26.900Z,11
2023-03-27T13:37:36.576Z,8
2023-03-27T13:38:43.361Z,14
2023-03-27T13:39:55.157Z,14
2023-03-27T13:41:04.895Z,14
2023-03-27T13:42:21.807Z,17
2023-03-27T13:43:33.777Z,17
2023-03-27T13:44:40.481Z,12
2023-03-27T13:45:57.682Z,23
2023-03-27T13:47:04.419Z,23
2023-03-27T13:48:16.013Z,14
2023-03-27T13:49:27.926Z,14
2023-03-27T13:50:42.769Z,23
2023-03-27T13:51:59.685Z,20
2023-03-27T13:53:11.794Z,22
2023-03-27T13:54:28.713Z,20
2023-03-27T13:55:43.231Z,22
2023-03-27T13:56:50.015Z,15
2023-03-27T13:58:04.918Z,15
2023-03-27T13:59:17.236Z,16
2023-03-27T14:00:32.016Z,13
2023-03-27T14:01:46.738Z,28
2023-03-27T14:02:58.614Z,27
2023-03-27T14:04:15.383Z,27
2023-03-27T14:05:32.344Z,19
2023-03-27T14:06:47.042Z,25
2023-03-27T14:07:58.843Z,22
2023-03-27T14:09:13.693Z,23
2023-03-27T14:10:30.559Z,36
2023-03-27T14:11:40.210Z,27
2023-03-27T14:12:49.963Z,25
2023-03-27T14:14:01.867Z,22
2023-03-27T14:15:18.740Z,17
2023-03-27T14:16:35.751Z,21
2023-03-27T14:17:52.705Z,21
2023-03-27T14:19:09.657Z,21
2023-03-27T14:20:24.452Z,12
2023-03-27T14:21:38.171Z,10
2023-03-27T14:22:48.072Z,10
2023-03-27T14:24:00.036Z,9
2023-03-27T14:25:06.870Z,9
2023-03-27T14:26:18.894Z,9
2023-03-27T14:27:25.530Z,11
2023-03-27T14:28:32.401Z,10
2023-03-27T14:29:44.260Z,10
2023-03-27T14:31:03.917Z,10
2023-03-27T14:32:10.647Z,9
2023-03-27T14:33:17.499Z,8
2023-03-27T14:34:24.254Z,13
2023-03-27T14:35:31.063Z,13
2023-03-27T14:36:38.972Z,15
2023-03-27T14:37:47.489Z,6
2023-03-27T14:38:56.911Z,189
2023-03-27T14:40:03.713Z,118
2023-03-27T14:41:20.593Z,34
2023-03-27T14:42:28.705Z,11
2023-03-27T14:43:34.236Z,20
2023-03-27T14:44:40.998Z,8
2023-03-27T14:45:47.860Z,14
2023-03-27T14:46:54.587Z,22
2023-03-27T14:48:06.671Z,33
2023-03-27T14:49:24.629Z,14
2023-03-27T14:50:30.283Z,17
2023-03-27T14:51:37.275Z,18
2023-03-27T14:52:46.880Z,21
2023-03-27T14:53:53.743Z,14
2023-03-27T14:55:00.563Z,18
2023-03-27T14:56:07.536Z,18
2023-03-27T14:57:24.619Z,18
2023-03-27T14:58:31.402Z,14
2023-03-27T14:59:38.124Z,13
2023-03-27T15:00:45.004Z,10
2023-03-27T15:01:51.747Z,9
2023-03-27T15:02:58.549Z,11
2023-03-27T15:04:05.394Z,9
2023-03-27T15:05:12.228Z,9
2023-03-27T15:06:18.977Z,12
2023-03-27T15:07:25.788Z,9
2023-03-27T15:08:32.576Z,12
2023-03-27T15:09:39.504Z,10
2023-03-27T15:10:46.293Z,9
2023-03-27T15:11:53.070Z,10
2023-03-27T15:12:59.906Z,11
2023-03-27T15:14:06.729Z,8
2023-03-27T15:15:16.332Z,11
2023-03-27T15:16:25.922Z,8
2023-03-27T15:17:32.773Z,11
2023-03-27T15:18:39.575Z,11
2023-03-27T15:19:46.545Z,7
2023-03-27T15:20:53.278Z,9
2023-03-27T15:22:01.402Z,12
2023-03-27T15:23:06.978Z,12
2023-03-27T15:24:16.782Z,14
2023-03-27T15:25:28.633Z,9
2023-03-27T15:26:43.379Z,8
2023-03-27T15:27:50.186Z,14
2023-03-27T15:28:57.019Z,14
2023-03-27T15:30:03.879Z,19
2023-03-27T15:31:13.480Z,12
2023-03-27T15:32:20.245Z,14
2023-03-27T15:33:27.154Z,14
2023-03-27T15:34:33.944Z,10
2023-03-27T15:35:40.748Z,14
2023-03-27T15:36:47.574Z,9
2023-03-27T15:37:54.470Z,8
2023-03-27T15:39:01.308Z,7
2023-03-27T15:40:08.321Z,6
2023-03-27T15:41:21.054Z,7
2023-03-27T15:42:30.678Z,7
2023-03-27T15:43:47.649Z,7
2023-03-27T15:44:54.530Z,6
2023-03-27T15:46:01.721Z,8
2023-03-27T15:47:13.474Z,9
2023-03-27T15:48:25.458Z,10
2023-03-27T15:49:35.064Z,7
2023-03-27T15:50:41.906Z,7
2023-03-27T15:51:56.323Z,9
2023-03-27T15:53:03.105Z,9
2023-03-27T15:54:10.060Z,10
2023-03-27T15:55:27.052Z,7
2023-03-27T15:56:36.618Z,8
2023-03-27T15:57:43.377Z,9
2023-03-27T15:58:50.149Z,7
2023-03-27T15:59:56.944Z,9
2023-03-27T16:01:18.353Z,11
2023-03-27T16:02:13.759Z,10
2023-03-27T16:03:20.713Z,8
2023-03-27T16:04:27.450Z,7
2023-03-27T16:05:37.051Z,7
2023-03-27T16:06:44.179Z,7
2023-03-27T16:07:58.028Z,8
2023-03-27T16:09:04.895Z,8
2023-03-27T16:10:22.083Z,9
2023-03-27T16:11:31.752Z,7
2023-03-27T16:12:43.621Z,9
2023-03-27T16:13:50.523Z,7
2023-03-27T16:15:00.271Z,8
2023-03-27T16:16:07.159Z,8
2023-03-27T16:17:21.601Z,7
2023-03-27T16:18:33.992Z,10
2023-03-27T16:19:41.038Z,8
2023-03-27T16:20:57.963Z,6
2023-03-27T16:22:09.816Z,7
2023-03-27T16:23:16.657Z,8
2023-03-27T16:24:23.429Z,9
2023-03-27T16:25:30.276Z,7
2023-03-27T16:26:37.125Z,7
2023-03-27T16:27:43.998Z,7
2023-03-27T16:28:50.858Z,7
2023-03-27T16:29:57.696Z,6
2023-03-27T16:31:04.512Z,6
2023-03-27T16:32:16.320Z,9
2023-03-27T16:33:23.148Z,11
2023-03-27T16:34:30.008Z,8